sensor_id;sensor_type;location;lat;lon;timestamp;temperature;humidity
26952;DHT22;14507;52.418;13.398;2023-12-20T00:00:25;6.70;99.90
26952;DHT22;14507;52.418;13.398;2023-12-20T00:02:51;6.70;99.90
26952;DHT22;14507;52.418;13.398;2023-12-20T00:05:17;6.70;99.90
26952;DHT22;14507;52.418;13.398;2023-12-20T00:07:42;6.70;99.90
26952;DHT22;14507;52.418;13.398;2023-12-20T00:10:08;6.60;99.90
26952;DHT22;14507;52.418;13.398;2023-12-20T00:12:34;6.70;99.90
26952;DHT22;14507;52.418;13.398;2023-12-20T00:14:59;6.70;99.90
26952;DHT22;14507;52.418;13.398;2023-12-20T00:17:25;6.80;99.90
26952;DHT22;14507;52.418;13.398;2023-12-20T00:19:50;6.80;99.90
26952;DHT22;14507;52.418;13.398;2023-12-20T00:22:16;6.80;99.90
26952;DHT22;14507;52.418;13.398;2023-12-20T00:24:42;6.80;99.90
26952;DHT22;14507;52.418;13.398;2023-12-20T00:27:07;6.80;99.90
26952;DHT22;14507;52.418;13.398;2023-12-20T00:29:33;6.80;99.90
26952;DHT22;14507;52.418;13.398;2023-12-20T00:31:58;6.80;99.90
26952;DHT22;14507;52.418;13.398;2023-12-20T00:34:24;6.80;99.90
26952;DHT22;14507;52.418;13.398;2023-12-20T00:36:49;6.80;99.90
26952;DHT22;14507;52.418;13.398;2023-12-20T00:39:15;6.70;99.90
26952;DHT22;14507;52.418;13.398;2023-12-20T00:41:41;6.70;99.90
26952;DHT22;14507;52.418;13.398;2023-12-20T00:44:07;6.70;99.90
26952;DHT22;14507;52.418;13.398;2023-12-20T00:46:32;6.70;99.90
26952;DHT22;14507;52.418;13.398;2023-12-20T00:48:58;6.70;99.90
26952;DHT22;14507;52.418;13.398;2023-12-20T00:51:23;6.70;99.90
26952;DHT22;14507;52.418;13.398;2023-12-20T00:53:50;6.70;99.90
26952;DHT22;14507;52.418;13.398;2023-12-20T00:56:20;6.70;99.90
26952;DHT22;14507;52.418;13.398;2023-12-20T00:58:46;6.70;99.90
26952;DHT22;14507;52.418;13.398;2023-12-20T01:01:11;6.70;99.90
26952;DHT22;14507;52.418;13.398;2023-12-20T01:03:37;6.90;99.90
26952;DHT22;14507;52.418;13.398;2023-12-20T01:06:03;6.70;99.90
26952;DHT22;14507;52.418;13.398;2023-12-20T01:08:30;6.70;99.90
26952;DHT22;14507;52.418;13.398;2023-12-20T01:10:55;6.80;99.90
26952;DHT22;14507;52.418;13.398;2023-12-20T01:13:21;6.70;99.90
26952;DHT22;14507;52.418;13.398;2023-12-20T01:15:47;6.70;99.90
26952;DHT22;14507;52.418;13.398;2023-12-20T01:18:13;6.70;99.90
26952;DHT22;14507;52.418;13.398;2023-12-20T01:20:39;6.70;99.90
26952;DHT22;14507;52.418;13.398;2023-12-20T01:23:04;6.70;99.90
26952;DHT22;14507;52.418;13.398;2023-12-20T01:25:30;6.60;99.90
26952;DHT22;14507;52.418;13.398;2023-12-20T01:27:56;6.70;99.90
26952;DHT22;14507;52.418;13.398;2023-12-20T01:30:21;6.70;99.90
26952;DHT22;14507;52.418;13.398;2023-12-20T01:32:47;6.70;99.90
26952;DHT22;14507;52.418;13.398;2023-12-20T01:35:12;6.70;99.90
26952;DHT22;14507;52.418;13.398;2023-12-20T01:37:38;6.70;99.90
26952;DHT22;14507;52.418;13.398;2023-12-20T01:40:04;6.70;99.90
26952;DHT22;14507;52.418;13.398;2023-12-20T01:42:30;6.70;99.90
26952;DHT22;14507;52.418;13.398;2023-12-20T01:44:56;6.70;99.90
26952;DHT22;14507;52.418;13.398;2023-12-20T01:47:21;6.70;99.90
26952;DHT22;14507;52.418;13.398;2023-12-20T01:49:48;6.70;99.90
26952;DHT22;14507;52.418;13.398;2023-12-20T01:52:14;6.70;99.90
26952;DHT22;14507;52.418;13.398;2023-12-20T01:54:40;6.70;99.90
26952;DHT22;14507;52.418;13.398;2023-12-20T01:57:08;6.70;99.90
26952;DHT22;14507;52.418;13.398;2023-12-20T01:59:34;6.70;99.90
26952;DHT22;14507;52.418;13.398;2023-12-20T02:02:00;6.70;99.90
26952;DHT22;14507;52.418;13.398;2023-12-20T02:04:27;6.70;99.90
26952;DHT22;14507;52.418;13.398;2023-12-20T02:06:53;6.60;99.90
26952;DHT22;14507;52.418;13.398;2023-12-20T02:09:19;6.70;99.90
26952;DHT22;14507;52.418;13.398;2023-12-20T02:11:44;6.70;99.90
26952;DHT22;14507;52.418;13.398;2023-12-20T02:14:10;6.70;99.90
26952;DHT22;14507;52.418;13.398;2023-12-20T02:16:36;6.70;99.90
26952;DHT22;14507;52.418;13.398;2023-12-20T02:19:03;6.70;99.90
26952;DHT22;14507;52.418;13.398;2023-12-20T02:21:32;6.70;99.90
26952;DHT22;14507;52.418;13.398;2023-12-20T02:24:01;6.70;99.90
26952;DHT22;14507;52.418;13.398;2023-12-20T02:26:27;6.80;99.90
26952;DHT22;14507;52.418;13.398;2023-12-20T02:28:52;6.70;99.90
26952;DHT22;14507;52.418;13.398;2023-12-20T02:31:21;6.70;99.90
26952;DHT22;14507;52.418;13.398;2023-12-20T02:33:47;6.70;99.90
26952;DHT22;14507;52.418;13.398;2023-12-20T02:36:13;6.80;99.90
26952;DHT22;14507;52.418;13.398;2023-12-20T02:38:38;6.80;99.90
26952;DHT22;14507;52.418;13.398;2023-12-20T02:41:04;6.80;99.90
26952;DHT22;14507;52.418;13.398;2023-12-20T02:43:30;6.80;99.90
26952;DHT22;14507;52.418;13.398;2023-12-20T02:45:55;6.80;99.90
26952;DHT22;14507;52.418;13.398;2023-12-20T02:48:21;6.90;99.90
26952;DHT22;14507;52.418;13.398;2023-12-20T02:50:47;6.90;99.90
26952;DHT22;14507;52.418;13.398;2023-12-20T02:53:14;6.90;99.90
26952;DHT22;14507;52.418;13.398;2023-12-20T02:55:40;6.90;99.90
26952;DHT22;14507;52.418;13.398;2023-12-20T02:58:05;6.90;99.90
26952;DHT22;14507;52.418;13.398;2023-12-20T03:00:31;7.00;99.90
26952;DHT22;14507;52.418;13.398;2023-12-20T03:02:57;7.00;99.90
26952;DHT22;14507;52.418;13.398;2023-12-20T03:05:24;6.90;99.90
26952;DHT22;14507;52.418;13.398;2023-12-20T03:07:50;7.00;99.90
26952;DHT22;14507;52.418;13.398;2023-12-20T03:10:15;7.00;99.90
26952;DHT22;14507;52.418;13.398;2023-12-20T03:12:41;7.00;99.90
26952;DHT22;14507;52.418;13.398;2023-12-20T03:15:07;7.10;99.90
26952;DHT22;14507;52.418;13.398;2023-12-20T03:17:33;7.00;99.90
26952;DHT22;14507;52.418;13.398;2023-12-20T03:19:58;7.10;99.90
26952;DHT22;14507;52.418;13.398;2023-12-20T03:22:24;7.10;99.90
26952;DHT22;14507;52.418;13.398;2023-12-20T03:24:49;7.10;99.90
26952;DHT22;14507;52.418;13.398;2023-12-20T03:27:15;7.10;99.90
26952;DHT22;14507;52.418;13.398;2023-12-20T03:29:40;7.10;99.90
26952;DHT22;14507;52.418;13.398;2023-12-20T03:32:06;7.10;99.90
26952;DHT22;14507;52.418;13.398;2023-12-20T03:34:33;7.10;99.90
26952;DHT22;14507;52.418;13.398;2023-12-20T03:36:59;7.00;99.90
26952;DHT22;14507;52.418;13.398;2023-12-20T03:39:25;7.00;99.90
26952;DHT22;14507;52.418;13.398;2023-12-20T03:41:50;7.00;99.90
26952;DHT22;14507;52.418;13.398;2023-12-20T03:44:16;7.00;99.90
26952;DHT22;14507;52.418;13.398;2023-12-20T03:46:41;7.00;99.90
26952;DHT22;14507;52.418;13.398;2023-12-20T03:49:07;7.00;99.90
26952;DHT22;14507;52.418;13.398;2023-12-20T03:51:33;7.00;99.90
26952;DHT22;14507;52.418;13.398;2023-12-20T03:53:58;7.00;99.90
26952;DHT22;14507;52.418;13.398;2023-12-20T03:56:24;7.00;99.90
26952;DHT22;14507;52.418;13.398;2023-12-20T03:58:49;7.00;99.90
26952;DHT22;14507;52.418;13.398;2023-12-20T04:01:18;7.00;99.90
26952;DHT22;14507;52.418;13.398;2023-12-20T04:03:44;7.00;99.90
26952;DHT22;14507;52.418;13.398;2023-12-20T04:06:09;7.00;99.90
26952;DHT22;14507;52.418;13.398;2023-12-20T04:08:35;7.00;99.90
26952;DHT22;14507;52.418;13.398;2023-12-20T04:11:00;7.00;99.90
26952;DHT22;14507;52.418;13.398;2023-12-20T04:13:26;7.00;99.90
26952;DHT22;14507;52.418;13.398;2023-12-20T04:15:52;7.00;99.90
26952;DHT22;14507;52.418;13.398;2023-12-20T04:18:17;7.00;99.90
26952;DHT22;14507;52.418;13.398;2023-12-20T04:20:43;7.00;99.90
26952;DHT22;14507;52.418;13.398;2023-12-20T04:23:08;7.00;99.90
26952;DHT22;14507;52.418;13.398;2023-12-20T04:25:34;7.00;99.90
26952;DHT22;14507;52.418;13.398;2023-12-20T04:28:00;7.00;99.90
26952;DHT22;14507;52.418;13.398;2023-12-20T04:30:25;7.00;99.90
26952;DHT22;14507;52.418;13.398;2023-12-20T04:32:51;7.00;99.90
26952;DHT22;14507;52.418;13.398;2023-12-20T04:35:17;6.90;99.90
26952;DHT22;14507;52.418;13.398;2023-12-20T04:37:42;6.90;99.90
26952;DHT22;14507;52.418;13.398;2023-12-20T04:40:08;6.90;99.90
26952;DHT22;14507;52.418;13.398;2023-12-20T04:42:33;6.90;99.90
26952;DHT22;14507;52.418;13.398;2023-12-20T04:44:59;6.80;99.90
26952;DHT22;14507;52.418;13.398;2023-12-20T04:47:25;6.80;99.90
26952;DHT22;14507;52.418;13.398;2023-12-20T04:49:50;6.80;99.90
26952;DHT22;14507;52.418;13.398;2023-12-20T04:52:16;6.80;99.90
26952;DHT22;14507;52.418;13.398;2023-12-20T04:54:42;6.70;99.90
26952;DHT22;14507;52.418;13.398;2023-12-20T04:57:07;6.60;99.90
26952;DHT22;14507;52.418;13.398;2023-12-20T04:59:33;6.60;99.90
26952;DHT22;14507;52.418;13.398;2023-12-20T05:01:58;6.60;99.90
26952;DHT22;14507;52.418;13.398;2023-12-20T05:04:24;6.60;99.90
26952;DHT22;14507;52.418;13.398;2023-12-20T05:06:49;6.60;99.90
26952;DHT22;14507;52.418;13.398;2023-12-20T05:09:15;6.30;99.90
26952;DHT22;14507;52.418;13.398;2023-12-20T05:11:41;6.40;99.90
26952;DHT22;14507;52.418;13.398;2023-12-20T05:14:07;6.40;99.90
26952;DHT22;14507;52.418;13.398;2023-12-20T05:16:33;6.40;99.90
26952;DHT22;14507;52.418;13.398;2023-12-20T05:18:58;6.30;99.90
26952;DHT22;14507;52.418;13.398;2023-12-20T05:21:26;6.30;99.90
26952;DHT22;14507;52.418;13.398;2023-12-20T05:23:52;6.30;99.90
26952;DHT22;14507;52.418;13.398;2023-12-20T05:26:17;6.20;99.90
26952;DHT22;14507;52.418;13.398;2023-12-20T05:28:43;6.20;99.90
26952;DHT22;14507;52.418;13.398;2023-12-20T05:31:09;6.20;99.90
26952;DHT22;14507;52.418;13.398;2023-12-20T05:33:35;6.20;99.90
26952;DHT22;14507;52.418;13.398;2023-12-20T05:36:00;6.20;99.90
26952;DHT22;14507;52.418;13.398;2023-12-20T05:38:26;6.20;99.90
26952;DHT22;14507;52.418;13.398;2023-12-20T05:40:52;6.30;99.90
26952;DHT22;14507;52.418;13.398;2023-12-20T05:43:17;6.20;99.90
26952;DHT22;14507;52.418;13.398;2023-12-20T05:45:43;6.10;99.90
26952;DHT22;14507;52.418;13.398;2023-12-20T05:48:08;6.10;99.90
26952;DHT22;14507;52.418;13.398;2023-12-20T05:50:34;6.10;99.90
26952;DHT22;14507;52.418;13.398;2023-12-20T05:53:00;6.00;99.90
26952;DHT22;14507;52.418;13.398;2023-12-20T05:55:26;6.00;99.90
26952;DHT22;14507;52.418;13.398;2023-12-20T05:57:51;5.90;99.90
26952;DHT22;14507;52.418;13.398;2023-12-20T06:00:17;5.90;99.90
26952;DHT22;14507;52.418;13.398;2023-12-20T06:02:44;5.90;99.90
26952;DHT22;14507;52.418;13.398;2023-12-20T06:05:10;5.90;99.90
26952;DHT22;14507;52.418;13.398;2023-12-20T06:07:35;5.80;99.90
26952;DHT22;14507;52.418;13.398;2023-12-20T06:10:01;5.80;99.90
26952;DHT22;14507;52.418;13.398;2023-12-20T06:12:26;5.80;99.90
26952;DHT22;14507;52.418;13.398;2023-12-20T06:14:54;5.70;99.90
26952;DHT22;14507;52.418;13.398;2023-12-20T06:17:19;5.60;99.90
26952;DHT22;14507;52.418;13.398;2023-12-20T06:19:45;5.60;99.90
26952;DHT22;14507;52.418;13.398;2023-12-20T06:22:14;5.60;99.90
26952;DHT22;14507;52.418;13.398;2023-12-20T06:24:39;5.60;99.90
26952;DHT22;14507;52.418;13.398;2023-12-20T06:27:05;5.60;99.90
26952;DHT22;14507;52.418;13.398;2023-12-20T06:29:30;5.60;99.90
26952;DHT22;14507;52.418;13.398;2023-12-20T06:31:56;5.60;99.90
26952;DHT22;14507;52.418;13.398;2023-12-20T06:34:22;5.60;99.90
26952;DHT22;14507;52.418;13.398;2023-12-20T06:36:48;5.50;99.90
26952;DHT22;14507;52.418;13.398;2023-12-20T06:39:14;5.60;99.90
26952;DHT22;14507;52.418;13.398;2023-12-20T06:41:39;5.50;99.90
26952;DHT22;14507;52.418;13.398;2023-12-20T06:44:05;5.50;99.90
26952;DHT22;14507;52.418;13.398;2023-12-20T06:46:31;5.50;99.90
26952;DHT22;14507;52.418;13.398;2023-12-20T06:48:57;5.50;99.90
26952;DHT22;14507;52.418;13.398;2023-12-20T06:51:22;5.50;99.90
26952;DHT22;14507;52.418;13.398;2023-12-20T06:53:53;5.50;99.90
26952;DHT22;14507;52.418;13.398;2023-12-20T06:56:19;5.50;99.90
26952;DHT22;14507;52.418;13.398;2023-12-20T06:58:45;5.50;99.90
26952;DHT22;14507;52.418;13.398;2023-12-20T07:01:12;5.40;99.90
26952;DHT22;14507;52.418;13.398;2023-12-20T07:03:38;5.40;99.90
26952;DHT22;14507;52.418;13.398;2023-12-20T07:06:04;5.40;99.90
26952;DHT22;14507;52.418;13.398;2023-12-20T07:08:30;5.40;99.90
26952;DHT22;14507;52.418;13.398;2023-12-20T07:10:55;5.40;99.90
26952;DHT22;14507;52.418;13.398;2023-12-20T07:13:21;5.40;99.90
26952;DHT22;14507;52.418;13.398;2023-12-20T07:15:48;5.40;99.90
26952;DHT22;14507;52.418;13.398;2023-12-20T07:18:13;5.40;99.90
26952;DHT22;14507;52.418;13.398;2023-12-20T07:20:39;5.40;99.90
26952;DHT22;14507;52.418;13.398;2023-12-20T07:23:05;5.40;99.90
26952;DHT22;14507;52.418;13.398;2023-12-20T07:25:30;5.40;99.90
26952;DHT22;14507;52.418;13.398;2023-12-20T07:27:58;5.40;99.90
26952;DHT22;14507;52.418;13.398;2023-12-20T07:30:24;5.50;99.90
26952;DHT22;14507;52.418;13.398;2023-12-20T07:32:49;5.50;99.90
26952;DHT22;14507;52.418;13.398;2023-12-20T07:35:16;5.50;99.90
26952;DHT22;14507;52.418;13.398;2023-12-20T07:37:41;5.50;99.90
26952;DHT22;14507;52.418;13.398;2023-12-20T07:40:08;5.50;99.90
26952;DHT22;14507;52.418;13.398;2023-12-20T07:42:33;5.50;99.90
26952;DHT22;14507;52.418;13.398;2023-12-20T07:44:59;5.60;99.90
26952;DHT22;14507;52.418;13.398;2023-12-20T07:47:25;5.50;99.90
26952;DHT22;14507;52.418;13.398;2023-12-20T07:49:51;5.50;99.90
26952;DHT22;14507;52.418;13.398;2023-12-20T07:52:19;5.50;99.90
26952;DHT22;14507;52.418;13.398;2023-12-20T07:54:47;5.50;99.90
26952;DHT22;14507;52.418;13.398;2023-12-20T07:57:12;5.60;99.90
26952;DHT22;14507;52.418;13.398;2023-12-20T07:59:38;5.60;99.90
26952;DHT22;14507;52.418;13.398;2023-12-20T08:02:04;5.60;99.90
26952;DHT22;14507;52.418;13.398;2023-12-20T08:04:29;5.60;99.90
26952;DHT22;14507;52.418;13.398;2023-12-20T08:06:55;5.60;99.90
26952;DHT22;14507;52.418;13.398;2023-12-20T08:09:21;5.60;99.90
26952;DHT22;14507;52.418;13.398;2023-12-20T08:11:47;5.60;99.90
26952;DHT22;14507;52.418;13.398;2023-12-20T08:14:14;5.70;99.90
26952;DHT22;14507;52.418;13.398;2023-12-20T08:16:39;5.70;99.90
26952;DHT22;14507;52.418;13.398;2023-12-20T08:19:05;5.60;99.90
26952;DHT22;14507;52.418;13.398;2023-12-20T08:21:31;5.60;99.90
26952;DHT22;14507;52.418;13.398;2023-12-20T08:23:56;5.70;99.90
26952;DHT22;14507;52.418;13.398;2023-12-20T08:26:22;5.90;99.90
26952;DHT22;14507;52.418;13.398;2023-12-20T08:28:49;5.80;99.90
26952;DHT22;14507;52.418;13.398;2023-12-20T08:31:19;5.80;99.90
26952;DHT22;14507;52.418;13.398;2023-12-20T08:33:46;5.80;99.90
26952;DHT22;14507;52.418;13.398;2023-12-20T08:36:12;5.80;99.90
26952;DHT22;14507;52.418;13.398;2023-12-20T08:38:38;5.80;99.90
26952;DHT22;14507;52.418;13.398;2023-12-20T08:41:03;5.80;99.90
26952;DHT22;14507;52.418;13.398;2023-12-20T08:43:39;5.80;99.90
26952;DHT22;14507;52.418;13.398;2023-12-20T08:46:08;5.80;99.90
26952;DHT22;14507;52.418;13.398;2023-12-20T08:48:35;5.90;99.90
26952;DHT22;14507;52.418;13.398;2023-12-20T08:51:01;5.90;99.90
26952;DHT22;14507;52.418;13.398;2023-12-20T08:53:26;5.90;99.90
26952;DHT22;14507;52.418;13.398;2023-12-20T08:55:52;6.00;99.90
26952;DHT22;14507;52.418;13.398;2023-12-20T08:58:18;6.10;99.90
26952;DHT22;14507;52.418;13.398;2023-12-20T09:00:43;6.20;99.90
26952;DHT22;14507;52.418;13.398;2023-12-20T09:03:09;6.30;99.90
26952;DHT22;14507;52.418;13.398;2023-12-20T09:05:35;6.30;99.90
26952;DHT22;14507;52.418;13.398;2023-12-20T09:08:00;6.30;99.90
26952;DHT22;14507;52.418;13.398;2023-12-20T09:10:26;6.30;99.90
26952;DHT22;14507;52.418;13.398;2023-12-20T09:12:52;6.30;99.90
26952;DHT22;14507;52.418;13.398;2023-12-20T09:15:26;6.30;99.90
26952;DHT22;14507;52.418;13.398;2023-12-20T09:17:52;6.40;99.90
26952;DHT22;14507;52.418;13.398;2023-12-20T09:20:18;6.40;99.90
26952;DHT22;14507;52.418;13.398;2023-12-20T09:22:43;6.50;99.90
26952;DHT22;14507;52.418;13.398;2023-12-20T09:25:10;6.40;99.90
26952;DHT22;14507;52.418;13.398;2023-12-20T09:27:36;6.40;99.90
26952;DHT22;14507;52.418;13.398;2023-12-20T09:30:02;6.50;99.90
26952;DHT22;14507;52.418;13.398;2023-12-20T09:32:30;6.40;99.90
26952;DHT22;14507;52.418;13.398;2023-12-20T09:34:56;6.40;99.90
26952;DHT22;14507;52.418;13.398;2023-12-20T09:37:21;6.40;99.90
26952;DHT22;14507;52.418;13.398;2023-12-20T09:39:47;6.40;99.90
26952;DHT22;14507;52.418;13.398;2023-12-20T09:42:17;6.40;99.90
26952;DHT22;14507;52.418;13.398;2023-12-20T09:44:47;6.40;99.90
26952;DHT22;14507;52.418;13.398;2023-12-20T09:47:14;6.50;99.90
26952;DHT22;14507;52.418;13.398;2023-12-20T09:49:42;6.50;99.90
26952;DHT22;14507;52.418;13.398;2023-12-20T09:52:09;6.40;99.90
26952;DHT22;14507;52.418;13.398;2023-12-20T09:54:36;6.50;99.90
26952;DHT22;14507;52.418;13.398;2023-12-20T09:57:02;6.50;99.90
26952;DHT22;14507;52.418;13.398;2023-12-20T09:59:27;6.50;99.90
26952;DHT22;14507;52.418;13.398;2023-12-20T10:01:55;6.70;99.90
26952;DHT22;14507;52.418;13.398;2023-12-20T10:04:22;6.50;99.90
26952;DHT22;14507;52.418;13.398;2023-12-20T10:06:47;6.50;99.90
26952;DHT22;14507;52.418;13.398;2023-12-20T10:09:13;6.60;99.90
26952;DHT22;14507;52.418;13.398;2023-12-20T10:11:40;6.60;99.90
26952;DHT22;14507;52.418;13.398;2023-12-20T10:14:06;6.60;99.90
26952;DHT22;14507;52.418;13.398;2023-12-20T10:16:33;6.60;99.90
26952;DHT22;14507;52.418;13.398;2023-12-20T10:19:00;6.60;99.90
26952;DHT22;14507;52.418;13.398;2023-12-20T10:21:30;6.60;99.90
26952;DHT22;14507;52.418;13.398;2023-12-20T10:23:56;6.60;99.90
26952;DHT22;14507;52.418;13.398;2023-12-20T10:26:23;6.70;99.90
26952;DHT22;14507;52.418;13.398;2023-12-20T10:29:00;6.70;99.90
26952;DHT22;14507;52.418;13.398;2023-12-20T10:31:31;6.70;99.90
26952;DHT22;14507;52.418;13.398;2023-12-20T10:33:58;6.70;99.90
26952;DHT22;14507;52.418;13.398;2023-12-20T10:36:28;6.70;99.90
26952;DHT22;14507;52.418;13.398;2023-12-20T10:38:55;6.80;99.90
26952;DHT22;14507;52.418;13.398;2023-12-20T10:41:29;6.80;99.90
26952;DHT22;14507;52.418;13.398;2023-12-20T10:44:05;6.80;99.90
26952;DHT22;14507;52.418;13.398;2023-12-20T10:46:31;6.80;99.90
26952;DHT22;14507;52.418;13.398;2023-12-20T10:48:58;6.90;99.90
26952;DHT22;14507;52.418;13.398;2023-12-20T10:51:24;6.90;99.90
26952;DHT22;14507;52.418;13.398;2023-12-20T10:53:53;7.00;99.90
26952;DHT22;14507;52.418;13.398;2023-12-20T10:56:19;7.00;99.90
26952;DHT22;14507;52.418;13.398;2023-12-20T10:58:46;7.00;99.90
26952;DHT22;14507;52.418;13.398;2023-12-20T11:01:16;7.10;99.90
26952;DHT22;14507;52.418;13.398;2023-12-20T11:03:49;7.10;99.90
26952;DHT22;14507;52.418;13.398;2023-12-20T11:06:40;7.10;99.90
26952;DHT22;14507;52.418;13.398;2023-12-20T11:14:46;7.00;99.90
26952;DHT22;14507;52.418;13.398;2023-12-20T11:17:12;7.00;99.90
26952;DHT22;14507;52.418;13.398;2023-12-20T11:20:04;7.00;99.90
26952;DHT22;14507;52.418;13.398;2023-12-20T11:22:31;7.00;99.90
26952;DHT22;14507;52.418;13.398;2023-12-20T11:25:08;7.00;99.90
26952;DHT22;14507;52.418;13.398;2023-12-20T11:27:35;7.00;99.90
26952;DHT22;14507;52.418;13.398;2023-12-20T11:30:03;7.00;99.90
26952;DHT22;14507;52.418;13.398;2023-12-20T11:32:31;7.00;99.90
26952;DHT22;14507;52.418;13.398;2023-12-20T11:37:38;7.10;99.90
26952;DHT22;14507;52.418;13.398;2023-12-20T11:40:08;7.10;99.90
26952;DHT22;14507;52.418;13.398;2023-12-20T11:42:44;7.00;99.90
26952;DHT22;14507;52.418;13.398;2023-12-20T11:45:10;7.00;99.90
26952;DHT22;14507;52.418;13.398;2023-12-20T11:47:36;6.90;99.90
26952;DHT22;14507;52.418;13.398;2023-12-20T11:50:03;6.90;99.90
26952;DHT22;14507;52.418;13.398;2023-12-20T11:52:29;6.90;99.90
26952;DHT22;14507;52.418;13.398;2023-12-20T11:54:55;6.90;99.90
26952;DHT22;14507;52.418;13.398;2023-12-20T11:57:21;6.90;99.90
26952;DHT22;14507;52.418;13.398;2023-12-20T11:59:46;6.90;99.90
26952;DHT22;14507;52.418;13.398;2023-12-20T12:02:12;6.90;99.90
26952;DHT22;14507;52.418;13.398;2023-12-20T12:04:38;6.90;99.90
26952;DHT22;14507;52.418;13.398;2023-12-20T12:07:04;6.90;99.90
26952;DHT22;14507;52.418;13.398;2023-12-20T12:09:29;6.90;99.90
26952;DHT22;14507;52.418;13.398;2023-12-20T12:11:55;6.90;99.90
26952;DHT22;14507;52.418;13.398;2023-12-20T12:14:21;6.90;99.90
26952;DHT22;14507;52.418;13.398;2023-12-20T12:16:46;6.90;99.90
26952;DHT22;14507;52.418;13.398;2023-12-20T12:19:25;6.80;99.90
26952;DHT22;14507;52.418;13.398;2023-12-20T12:22:03;6.90;99.90
26952;DHT22;14507;52.418;13.398;2023-12-20T12:24:30;6.90;99.90
26952;DHT22;14507;52.418;13.398;2023-12-20T12:26:57;6.90;99.90
26952;DHT22;14507;52.418;13.398;2023-12-20T12:29:23;6.90;99.90
26952;DHT22;14507;52.418;13.398;2023-12-20T12:31:50;6.90;99.90
26952;DHT22;14507;52.418;13.398;2023-12-20T12:34:17;6.90;99.90
26952;DHT22;14507;52.418;13.398;2023-12-20T12:36:43;6.90;99.90
26952;DHT22;14507;52.418;13.398;2023-12-20T12:39:09;7.00;99.90
26952;DHT22;14507;52.418;13.398;2023-12-20T12:41:37;6.90;99.90
26952;DHT22;14507;52.418;13.398;2023-12-20T12:44:02;6.90;99.90
26952;DHT22;14507;52.418;13.398;2023-12-20T12:46:28;6.90;99.90
26952;DHT22;14507;52.418;13.398;2023-12-20T12:48:54;6.90;99.90
26952;DHT22;14507;52.418;13.398;2023-12-20T12:51:20;6.90;99.90
26952;DHT22;14507;52.418;13.398;2023-12-20T12:53:45;6.90;99.90
26952;DHT22;14507;52.418;13.398;2023-12-20T12:56:13;6.90;99.90
26952;DHT22;14507;52.418;13.398;2023-12-20T12:58:39;6.80;99.90
26952;DHT22;14507;52.418;13.398;2023-12-20T13:01:04;6.80;99.90
26952;DHT22;14507;52.418;13.398;2023-12-20T13:03:30;6.80;99.90
26952;DHT22;14507;52.418;13.398;2023-12-20T13:05:56;6.80;99.90
26952;DHT22;14507;52.418;13.398;2023-12-20T13:08:21;6.80;99.90
26952;DHT22;14507;52.418;13.398;2023-12-20T13:10:47;6.70;99.90
26952;DHT22;14507;52.418;13.398;2023-12-20T13:13:13;6.70;99.90
26952;DHT22;14507;52.418;13.398;2023-12-20T13:15:39;6.70;99.90
26952;DHT22;14507;52.418;13.398;2023-12-20T13:18:04;6.60;99.90
26952;DHT22;14507;52.418;13.398;2023-12-20T13:20:31;6.60;99.90
26952;DHT22;14507;52.418;13.398;2023-12-20T13:22:57;6.50;99.90
26952;DHT22;14507;52.418;13.398;2023-12-20T13:25:22;6.60;99.90
26952;DHT22;14507;52.418;13.398;2023-12-20T13:27:49;6.50;99.90
26952;DHT22;14507;52.418;13.398;2023-12-20T13:30:16;6.50;99.90
26952;DHT22;14507;52.418;13.398;2023-12-20T13:32:42;6.50;99.90
26952;DHT22;14507;52.418;13.398;2023-12-20T13:35:08;6.50;99.90
26952;DHT22;14507;52.418;13.398;2023-12-20T13:37:34;6.50;99.90
26952;DHT22;14507;52.418;13.398;2023-12-20T13:40:01;6.50;99.90
26952;DHT22;14507;52.418;13.398;2023-12-20T13:42:28;6.50;99.90
26952;DHT22;14507;52.418;13.398;2023-12-20T13:44:54;6.40;99.90
26952;DHT22;14507;52.418;13.398;2023-12-20T13:47:20;6.30;99.90
26952;DHT22;14507;52.418;13.398;2023-12-20T13:49:45;6.30;99.90
26952;DHT22;14507;52.418;13.398;2023-12-20T13:52:11;6.20;99.90
26952;DHT22;14507;52.418;13.398;2023-12-20T13:54:38;6.20;99.90
26952;DHT22;14507;52.418;13.398;2023-12-20T13:57:03;6.20;99.90
26952;DHT22;14507;52.418;13.398;2023-12-20T13:59:29;6.10;99.90
26952;DHT22;14507;52.418;13.398;2023-12-20T14:01:55;6.10;99.90
26952;DHT22;14507;52.418;13.398;2023-12-20T14:04:22;6.10;99.90
26952;DHT22;14507;52.418;13.398;2023-12-20T14:06:48;6.00;99.90
26952;DHT22;14507;52.418;13.398;2023-12-20T14:09:13;6.00;99.90
26952;DHT22;14507;52.418;13.398;2023-12-20T14:11:40;5.90;99.90
26952;DHT22;14507;52.418;13.398;2023-12-20T14:14:07;5.90;99.90
26952;DHT22;14507;52.418;13.398;2023-12-20T14:16:34;5.80;99.90
26952;DHT22;14507;52.418;13.398;2023-12-20T14:19:00;5.70;99.90
26952;DHT22;14507;52.418;13.398;2023-12-20T14:21:25;5.60;99.90
26952;DHT22;14507;52.418;13.398;2023-12-20T14:23:51;5.60;99.90
26952;DHT22;14507;52.418;13.398;2023-12-20T14:26:17;5.60;99.90
26952;DHT22;14507;52.418;13.398;2023-12-20T14:28:43;5.50;99.90
26952;DHT22;14507;52.418;13.398;2023-12-20T14:31:09;5.50;99.90
26952;DHT22;14507;52.418;13.398;2023-12-20T14:33:36;5.50;99.90
26952;DHT22;14507;52.418;13.398;2023-12-20T14:36:04;5.50;99.90
26952;DHT22;14507;52.418;13.398;2023-12-20T14:38:31;5.40;99.90
26952;DHT22;14507;52.418;13.398;2023-12-20T14:40:56;5.40;99.90
26952;DHT22;14507;52.418;13.398;2023-12-20T14:43:23;5.40;99.90
26952;DHT22;14507;52.418;13.398;2023-12-20T14:45:48;5.40;99.90
26952;DHT22;14507;52.418;13.398;2023-12-20T14:48:16;5.30;99.90
26952;DHT22;14507;52.418;13.398;2023-12-20T14:50:41;5.30;99.90
26952;DHT22;14507;52.418;13.398;2023-12-20T14:53:08;5.40;99.90
26952;DHT22;14507;52.418;13.398;2023-12-20T14:55:33;5.40;99.90
26952;DHT22;14507;52.418;13.398;2023-12-20T14:57:59;5.40;99.90
26952;DHT22;14507;52.418;13.398;2023-12-20T15:00:25;5.40;99.90
26952;DHT22;14507;52.418;13.398;2023-12-20T15:02:51;5.40;99.90
26952;DHT22;14507;52.418;13.398;2023-12-20T15:05:16;5.40;99.90
26952;DHT22;14507;52.418;13.398;2023-12-20T15:07:43;5.40;99.90
26952;DHT22;14507;52.418;13.398;2023-12-20T15:10:09;6.00;99.90
26952;DHT22;14507;52.418;13.398;2023-12-20T15:12:35;5.40;99.90
26952;DHT22;14507;52.418;13.398;2023-12-20T15:15:00;5.40;99.90
26952;DHT22;14507;52.418;13.398;2023-12-20T15:17:26;5.40;99.90
26952;DHT22;14507;52.418;13.398;2023-12-20T15:19:52;5.40;99.90
26952;DHT22;14507;52.418;13.398;2023-12-20T15:22:18;5.40;99.90
26952;DHT22;14507;52.418;13.398;2023-12-20T15:24:43;5.40;99.90
26952;DHT22;14507;52.418;13.398;2023-12-20T15:27:11;5.40;99.90
26952;DHT22;14507;52.418;13.398;2023-12-20T15:29:37;5.50;99.90
26952;DHT22;14507;52.418;13.398;2023-12-20T15:32:03;5.50;99.90